Time;durP1;ratioP1;P1;durP2;ratioP2;P2;SDS_P1;SDS_P2;PMS_P1;PMS_P2;Temp;Humidity;BMP_temperature;BMP_pressure;BME280_temperature;BME280_humidity;BME280_pressure;Samples;Min_cycle;Max_cycle;Signal;HPM_P1;HPM_P2
2021/06/01 00:02:21;;;;;;;3.70;2.13;;;10.90;99.90;;;;;;5204459;28;20633;-67
2021/06/01 00:04:53;;;;;;;2.97;1.80;;;10.90;99.90;;;;;;5189334;28;20217;-66
2021/06/01 00:07:25;;;;;;;3.83;1.80;;;10.90;99.90;;;;;;5205692;28;20209;-66
2021/06/01 00:09:56;;;;;;;2.63;1.70;;;10.90;99.90;;;;;;5205618;28;20209;-66
2021/06/01 00:12:28;;;;;;;4.00;1.70;;;11.00;99.90;;;;;;5205654;28;20197;-66
2021/06/01 00:18:55;;;;;;;2.83;2.00;;;10.90;99.90;;;;;;5205271;28;20214;-66
2021/06/01 00:21:27;;;;;;;3.73;1.77;;;10.90;99.90;;;;;;5263132;28;20199;-66
2021/06/01 00:24:00;;;;;;;3.53;1.80;;;10.90;99.90;;;;;;5270088;28;20604;-66
2021/06/01 00:26:32;;;;;;;2.47;1.33;;;10.90;99.90;;;;;;5270293;28;20309;-66
2021/06/01 00:29:05;;;;;;;4.23;2.00;;;10.90;99.90;;;;;;5269767;28;20196;-67
2021/06/01 00:35:34;;;;;;;4.43;2.23;;;10.90;99.90;;;;;;5269870;28;20637;-65
2021/06/01 00:38:06;;;;;;;4.40;2.07;;;10.90;99.90;;;;;;5269553;28;20231;-66
2021/06/01 00:40:38;;;;;;;4.60;2.20;;;10.90;99.90;;;;;;5270493;28;20188;-65
2021/06/01 00:43:10;;;;;;;4.13;2.50;;;10.90;99.90;;;;;;5269949;28;20234;-66
2021/06/01 00:45:42;;;;;;;4.40;2.80;;;10.90;99.90;;;;;;5269461;28;20634;-66
2021/06/01 00:48:14;;;;;;;4.37;2.67;;;10.90;99.90;;;;;;5269752;28;20196;-67
2021/06/01 00:50:46;;;;;;;3.93;2.17;;;10.90;99.90;;;;;;5269555;28;20238;-66
2021/06/01 00:53:18;;;;;;;3.63;2.33;;;10.90;99.90;;;;;;5269771;28;20189;-69
2021/06/01 00:55:50;;;;;;;4.47;2.63;;;10.90;99.90;;;;;;5268482;28;20191;-66
2021/06/01 00:58:25;;;;;;;3.20;2.20;;;10.90;99.90;;;;;;5269452;28;20216;-65
2021/06/01 01:03:39;;;;;;;6.73;2.30;;;10.70;99.90;;;;;;5284733;28;20226;-65
2021/06/01 01:06:41;;;;;;;5.63;2.47;;;10.60;99.90;;;;;;5290463;28;20199;-66
2021/06/01 01:09:16;;;;;;;10.90;6.57;;;10.60;99.90;;;;;;5280882;28;20623;-66
2021/06/01 01:11:55;;;;;;;16.30;10.07;;;10.60;99.90;;;;;;5290103;28;20195;-67
2021/06/01 01:14:33;;;;;;;10.97;6.90;;;10.60;99.90;;;;;;5290494;28;20192;-67
2021/06/01 01:17:15;;;;;;;9.07;5.13;;;10.50;99.90;;;;;;5289991;28;20211;-68
2021/06/01 01:20:15;;;;;;;8.47;4.93;;;10.50;99.90;;;;;;5287491;28;20191;-66
2021/06/01 01:22:50;;;;;;;4.80;2.97;;;10.50;99.90;;;;;;5290129;28;20195;-65
2021/06/01 01:25:25;;;;;;;4.77;2.70;;;10.40;99.90;;;;;;5290029;28;20274;-66
2021/06/01 01:28:02;;;;;;;5.07;2.77;;;10.50;99.90;;;;;;5291290;28;20198;-68
2021/06/01 01:34:31;;;;;;;3.97;2.40;;;10.50;99.90;;;;;;5294357;28;20213;-67
2021/06/01 01:37:06;;;;;;;3.57;2.20;;;10.50;99.90;;;;;;5294020;28;20199;-66
2021/06/01 01:39:45;;;;;;;6.43;2.40;;;10.60;99.90;;;;;;5276906;28;20199;-67
2021/06/01 01:42:19;;;;;;;3.17;2.10;;;10.60;99.90;;;;;;5294260;28;20188;-67
2021/06/01 01:44:53;;;;;;;6.93;2.33;;;10.60;99.90;;;;;;5293946;28;20203;-64
2021/06/01 01:51:21;;;;;;;4.23;2.27;;;10.70;99.90;;;;;;5294059;28;20174;-66
2021/06/01 01:53:57;;;;;;;4.17;2.50;;;10.70;99.90;;;;;;5293861;28;20198;-65
2021/06/01 01:56:36;;;;;;;4.60;2.57;;;10.70;99.90;;;;;;5294072;28;20192;-67
2021/06/01 01:59:20;;;;;;;3.50;2.20;;;10.70;99.90;;;;;;5293674;28;20223;-65
2021/06/01 02:01:53;;;;;;;4.30;2.77;;;10.70;99.90;;;;;;5293412;28;20192;-66
2021/06/01 02:04:28;;;;;;;4.03;2.70;;;10.70;99.90;;;;;;5293724;28;20192;-67
2021/06/01 02:07:00;;;;;;;7.27;3.13;;;10.70;99.90;;;;;;5293622;28;20198;-66
2021/06/01 02:09:32;;;;;;;6.63;3.00;;;10.70;99.90;;;;;;5293843;28;20237;-67
2021/06/01 02:12:04;;;;;;;6.63;3.37;;;10.70;99.90;;;;;;5293748;28;20622;-64
2021/06/01 02:14:36;;;;;;;4.73;2.87;;;10.70;99.90;;;;;;5293770;28;20195;-65
2021/06/01 02:17:08;;;;;;;5.63;3.20;;;10.60;99.90;;;;;;5293205;28;20193;-66
2021/06/01 02:19:41;;;;;;;6.17;4.33;;;10.60;99.90;;;;;;5294527;28;20192;-66
2021/06/01 02:25:04;;;;;;;4.83;3.10;;;10.60;99.90;;;;;;5293248;28;20203;-66
2021/06/01 02:28:01;;;;;;;6.37;3.50;;;10.60;99.90;;;;;;5293143;28;20192;-65
2021/06/01 02:34:31;;;;;;;6.00;3.33;;;10.50;99.90;;;;;;5293142;28;20299;-67
2021/06/01 02:37:04;;;;;;;4.60;3.00;;;10.50;99.90;;;;;;5292787;28;20194;-67
2021/06/01 02:39:38;;;;;;;4.63;2.80;;;10.40;99.90;;;;;;5292277;28;20188;-65
2021/06/01 02:42:10;;;;;;;5.90;2.83;;;10.40;99.90;;;;;;5293075;28;20199;-67
2021/06/01 02:44:42;;;;;;;5.87;3.40;;;10.40;99.90;;;;;;5292775;28;20199;-65
2021/06/01 02:51:17;;;;;;;4.93;2.63;;;10.50;99.90;;;;;;5292794;28;20179;-66
2021/06/01 02:53:54;;;;;;;6.93;2.93;;;10.60;99.90;;;;;;5292493;28;20203;-67
2021/06/01 02:56:27;;;;;;;7.10;3.10;;;10.70;99.90;;;;;;5292557;28;20197;-66
2021/06/01 02:59:04;;;;;;;6.93;3.17;;;10.70;99.90;;;;;;5292810;28;20257;-68
2021/06/01 03:01:36;;;;;;;5.47;3.20;;;10.80;99.90;;;;;;5292449;28;20187;-67
2021/06/01 03:04:08;;;;;;;6.77;3.33;;;10.90;99.90;;;;;;5292327;28;20235;-68
2021/06/01 03:06:45;;;;;;;4.33;2.33;;;10.90;99.90;;;;;;5292358;28;20195;-67
2021/06/01 03:09:16;;;;;;;5.40;2.50;;;11.00;99.90;;;;;;5292733;28;20199;-66
2021/06/01 03:11:48;;;;;;;6.73;3.30;;;11.00;99.90;;;;;;5292545;28;20187;-67
2021/06/01 03:14:21;;;;;;;7.63;3.00;;;11.10;99.90;;;;;;5292583;28;20192;-67
2021/06/01 03:16:53;;;;;;;4.17;2.73;;;11.10;99.90;;;;;;5274573;28;20283;-66
2021/06/01 03:19:25;;;;;;;6.73;2.80;;;11.10;99.90;;;;;;5274020;28;20219;-66
2021/06/01 03:21:56;;;;;;;4.53;2.90;;;11.20;99.90;;;;;;5292417;28;20245;-66
2021/06/01 03:24:28;;;;;;;7.17;3.80;;;11.30;99.90;;;;;;5274325;28;20191;-67
2021/06/01 03:27:00;;;;;;;7.00;3.00;;;11.30;99.90;;;;;;5291969;28;20192;-65
2021/06/01 03:29:32;;;;;;;5.97;2.97;;;11.40;99.90;;;;;;5292219;28;20188;-66
2021/06/01 03:32:05;;;;;;;5.57;3.23;;;11.40;99.90;;;;;;5292169;28;20203;-69
2021/06/01 03:34:37;;;;;;;5.57;2.87;;;11.50;99.90;;;;;;5292221;28;20188;-65
2021/06/01 03:37:09;;;;;;;6.30;3.13;;;11.50;99.90;;;;;;5291790;28;20203;-65
2021/06/01 03:39:41;;;;;;;8.13;3.47;;;11.60;99.90;;;;;;5291686;28;20219;-65
2021/06/01 03:42:13;;;;;;;8.07;3.37;;;11.70;99.90;;;;;;5291970;28;20184;-67
2021/06/01 03:44:46;;;;;;;5.77;3.47;;;11.80;99.90;;;;;;5292001;28;20191;-69
2021/06/01 03:47:17;;;;;;;6.57;3.50;;;11.90;99.90;;;;;;5291963;28;20199;-65
2021/06/01 03:49:49;;;;;;;6.83;3.50;;;12.00;99.90;;;;;;5291882;28;20194;-67
2021/06/01 03:52:21;;;;;;;7.20;3.10;;;12.10;99.90;;;;;;5290930;28;20297;-67
2021/06/01 03:54:53;;;;;;;6.97;3.50;;;12.20;99.90;;;;;;5273570;28;20191;-67
2021/06/01 03:57:25;;;;;;;7.40;3.30;;;12.30;99.90;;;;;;5291622;28;20557;-65
2021/06/01 03:59:58;;;;;;;7.40;3.43;;;12.40;99.90;;;;;;5291704;28;20207;-67
2021/06/01 04:02:30;;;;;;;9.03;3.33;;;12.50;99.90;;;;;;5289676;28;20219;-66
2021/06/01 04:05:02;;;;;;;8.43;4.00;;;12.60;99.90;;;;;;5291580;28;20563;-65
2021/06/01 04:07:34;;;;;;;6.17;3.50;;;12.60;99.90;;;;;;5291382;28;20518;-66
2021/06/01 04:10:07;;;;;;;6.30;3.57;;;12.60;99.90;;;;;;5291005;28;20196;-65
2021/06/01 04:12:40;;;;;;;4.60;3.30;;;12.70;99.90;;;;;;5291033;28;20188;-65
2021/06/01 04:15:12;;;;;;;5.60;3.53;;;12.70;99.90;;;;;;5291849;28;20196;-65
2021/06/01 04:17:44;;;;;;;6.87;3.17;;;12.70;99.90;;;;;;5290932;28;20187;-66
2021/06/01 04:20:17;;;;;;;7.87;3.53;;;12.70;99.90;;;;;;5273701;28;20195;-64
2021/06/01 04:22:49;;;;;;;6.53;3.67;;;12.80;99.90;;;;;;5291223;28;20604;-65
2021/06/01 04:25:22;;;;;;;5.57;3.20;;;12.80;99.90;;;;;;5291033;28;20188;-66
2021/06/01 04:27:54;;;;;;;10.23;3.40;;;12.80;99.90;;;;;;5291144;28;20567;-67
2021/06/01 04:30:26;;;;;;;9.43;4.30;;;12.80;99.90;;;;;;5290974;28;20571;-67
2021/06/01 04:32:58;;;;;;;7.53;4.07;;;12.90;99.90;;;;;;5290662;28;20195;-67
2021/06/01 04:35:30;;;;;;;7.80;4.30;;;12.90;99.90;;;;;;5290538;28;20223;-67
2021/06/01 04:38:02;;;;;;;7.77;4.07;;;12.90;99.90;;;;;;5290508;28;20223;-66
2021/06/01 04:40:34;;;;;;;9.47;3.90;;;13.00;99.90;;;;;;5290611;28;20542;-69
2021/06/01 04:43:06;;;;;;;6.80;3.67;;;13.00;99.90;;;;;;5290999;28;20586;-70
2021/06/01 04:45:38;;;;;;;7.37;3.97;;;13.10;99.90;;;;;;5290723;28;20191;-70
2021/06/01 04:48:09;;;;;;;9.23;4.07;;;13.20;99.90;;;;;;5290536;28;20196;-69
2021/06/01 04:50:41;;;;;;;6.73;3.77;;;13.30;99.90;;;;;;5290394;28;20260;-66
2021/06/01 04:53:14;;;;;;;10.93;4.70;;;13.40;99.90;;;;;;5290683;28;20543;-69
2021/06/01 04:55:46;;;;;;;7.53;4.37;;;13.50;99.90;;;;;;5290731;28;20187;-69
2021/06/01 04:58:18;;;;;;;9.60;4.17;;;13.70;99.90;;;;;;5291221;28;20211;-68
2021/06/01 05:00:50;;;;;;;14.30;4.87;;;13.80;99.90;;;;;;5290400;28;20180;-68
2021/06/01 05:03:22;;;;;;;7.80;4.10;;;13.90;99.90;;;;;;5280943;28;20242;-66
2021/06/01 05:05:54;;;;;;;10.17;4.07;;;13.90;99.90;;;;;;5290285;28;20192;-67
2021/06/01 05:08:25;;;;;;;9.90;4.37;;;13.90;99.90;;;;;;5290540;28;20187;-67
2021/06/01 05:10:57;;;;;;;9.30;4.40;;;13.90;99.90;;;;;;5290315;28;20649;-66
2021/06/01 05:13:29;;;;;;;11.37;5.13;;;13.80;99.90;;;;;;5290608;28;20183;-67
2021/06/01 05:16:01;;;;;;;9.20;4.07;;;13.70;99.90;;;;;;5290538;28;20202;-66
2021/06/01 05:18:33;;;;;;;7.80;4.17;;;13.70;99.90;;;;;;5290303;28;20220;-68
2021/06/01 05:21:08;;;;;;;12.37;4.27;;;13.70;99.90;;;;;;5290492;28;20187;-68
2021/06/01 05:23:40;;;;;;;8.30;4.40;;;13.70;99.90;;;;;;5290454;28;20630;-67
2021/06/01 05:26:12;;;;;;;7.27;4.10;;;13.70;99.90;;;;;;5290513;28;20199;-67
2021/06/01 05:28:44;;;;;;;7.13;4.30;;;13.70;99.90;;;;;;5290231;28;20202;-68
2021/06/01 05:31:26;;;;;;;13.90;7.00;;;13.80;99.90;;;;;;5290231;28;20183;-68
2021/06/01 05:34:41;;;;;;;10.77;6.07;;;13.80;99.90;;;;;;5246016;28;20214;-67
2021/06/01 05:37:13;;;;;;;13.13;5.20;;;13.90;99.90;;;;;;5245905;28;20201;-65
2021/06/01 05:39:45;;;;;;;11.87;4.73;;;13.90;99.90;;;;;;5245805;28;20220;-68
2021/06/01 05:42:17;;;;;;;10.23;4.90;;;14.00;99.90;;;;;;5245758;28;20185;-69
2021/06/01 05:44:49;;;;;;;6.10;3.97;;;14.00;99.90;;;;;;5245774;28;20212;-67
2021/06/01 05:51:17;;;;;;;7.23;3.63;;;14.20;99.90;;;;;;5245819;28;20173;-67
2021/06/01 05:53:52;;;;;;;9.57;4.23;;;14.30;99.90;;;;;;5245769;28;20201;-66
2021/06/01 05:56:24;;;;;;;7.70;4.63;;;14.50;99.90;;;;;;5245736;28;20261;-69
2021/06/01 05:58:56;;;;;;;7.90;4.30;;;14.60;99.90;;;;;;5245494;28;20626;-68
2021/06/01 06:01:28;;;;;;;11.73;4.77;;;14.60;99.90;;;;;;5245523;28;20639;-68
2021/06/01 06:08:37;;;;;;;9.37;3.87;;;14.80;99.90;;;;;;5247808;28;20306;-66
2021/06/01 06:11:09;;;;;;;7.17;4.10;;;15.00;99.90;;;;;;5247726;28;20185;-68
2021/06/01 06:13:41;;;;;;;7.03;4.00;;;15.10;99.90;;;;;;5247864;28;20188;-68
2021/06/01 06:16:18;;;;;;;6.30;3.57;;;15.20;99.90;;;;;;5250416;28;20189;-67
2021/06/01 06:22:37;;;;;;;6.53;3.73;;;15.50;99.90;;;;;;5251165;28;20223;-67
2021/06/01 06:25:11;;;;;;;7.93;4.00;;;15.60;99.90;;;;;;5251095;28;20293;-65
2021/06/01 06:27:43;;;;;;;8.60;3.67;;;15.80;99.90;;;;;;5251386;28;20586;-66
2021/06/01 06:30:16;;;;;;;5.77;3.20;;;16.30;99.90;;;;;;5251389;28;20553;-63
2021/06/01 06:32:48;;;;;;;5.40;3.43;;;16.80;99.90;;;;;;5250953;28;20193;-63
2021/06/01 06:35:20;;;;;;;5.22;3.13;;;18.30;99.90;;;;;;5250940;28;20193;-64
2021/06/01 06:37:52;;;;;;;5.15;2.85;;;20.00;99.90;;;;;;5251286;28;20204;-63
2021/06/01 06:40:24;;;;;;;4.15;2.95;;;21.30;99.90;;;;;;5250850;28;20220;-63
2021/06/01 06:42:57;;;;;;;5.47;3.10;;;22.20;99.90;;;;;;5251111;28;20193;-63
2021/06/01 06:45:31;;;;;;;6.15;3.00;;;22.70;99.90;;;;;;5251004;28;20208;-65
2021/06/01 06:48:06;;;;;;;4.55;2.75;;;22.90;99.90;;;;;;5250178;28;20208;-63
2021/06/01 06:50:38;;;;;;;8.18;3.00;;;22.60;99.90;;;;;;5250870;28;20196;-61
2021/06/01 06:53:10;;;;;;;3.97;2.95;;;22.40;99.90;;;;;;5250579;28;20193;-62
2021/06/01 06:55:42;;;;;;;6.90;2.65;;;22.40;99.90;;;;;;5250415;28;20251;-62
2021/06/01 06:58:13;;;;;;;4.18;2.78;;;22.10;99.90;;;;;;5250731;28;20585;-62
2021/06/01 07:00:45;;;;;;;6.40;2.97;;;22.30;99.90;;;;;;5250293;28;20196;-62
2021/06/01 07:03:17;;;;;;;4.20;3.03;;;22.90;99.90;;;;;;5250275;28;20281;-63
2021/06/01 07:05:49;;;;;;;4.85;2.90;;;22.60;99.90;;;;;;5250254;28;20193;-63
2021/06/01 07:08:21;;;;;;;6.28;3.10;;;22.50;99.90;;;;;;5289879;28;20238;-65
2021/06/01 07:10:53;;;;;;;6.45;3.38;;;22.10;99.90;;;;;;5292552;28;20214;-64
2021/06/01 07:13:31;;;;;;;6.82;2.90;;;21.40;99.90;;;;;;5292580;28;20544;-65
2021/06/01 07:16:03;;;;;;;6.10;3.03;;;21.50;99.90;;;;;;5292344;28;20244;-65
2021/06/01 07:18:38;;;;;;;9.38;3.70;;;22.10;99.90;;;;;;5292082;28;20222;-67
2021/06/01 07:21:11;;;;;;;7.25;3.35;;;22.90;99.90;;;;;;5292436;28;20554;-65
2021/06/01 07:23:43;;;;;;;6.40;3.15;;;23.30;99.90;;;;;;5292303;28;20298;-65
2021/06/01 07:26:16;;;;;;;5.95;4.05;;;22.90;99.90;;;;;;5292434;28;20583;-66
2021/06/01 07:28:47;;;;;;;9.07;3.72;;;22.80;99.90;;;;;;5292459;28;20203;-65
2021/06/01 07:31:19;;;;;;;7.45;3.95;;;22.80;99.90;;;;;;5292517;28;20249;-67
2021/06/01 07:33:52;;;;;;;9.95;4.22;;;22.90;99.90;;;;;;5292128;28;20556;-66
2021/06/01 07:36:24;;;;;;;11.32;3.90;;;22.90;99.90;;;;;;5291701;28;20298;-64
2021/06/01 07:38:55;;;;;;;10.95;4.20;;;23.00;99.90;;;;;;5292186;28;20207;-67
2021/06/01 07:41:27;;;;;;;7.75;3.92;;;23.50;99.90;;;;;;5291777;28;20192;-67
2021/06/01 07:44:02;;;;;;;6.07;3.42;;;23.50;99.90;;;;;;5291894;28;20199;-67
2021/06/01 07:46:35;;;;;;;6.10;3.55;;;22.90;99.90;;;;;;5290907;28;20187;-66
2021/06/01 07:49:09;;;;;;;10.77;3.85;;;21.50;99.90;;;;;;5282993;28;20207;-63
2021/06/01 07:51:41;;;;;;;9.13;3.88;;;20.90;99.90;;;;;;5291116;28;20419;-65
2021/06/01 07:54:13;;;;;;;8.25;3.45;;;20.50;99.90;;;;;;5291707;28;20310;-66
2021/06/01 07:56:45;;;;;;;8.77;3.90;;;20.30;99.90;;;;;;5291193;28;20194;-62
2021/06/01 07:59:17;;;;;;;7.05;3.78;;;20.20;99.90;;;;;;5291197;28;20257;-63
2021/06/01 08:01:49;;;;;;;12.65;4.28;;;20.30;99.90;;;;;;5291273;28;20192;-62
2021/06/01 08:04:21;;;;;;;8.60;4.22;;;20.20;99.90;;;;;;5291119;28;20298;-61
2021/06/01 08:06:52;;;;;;;13.23;4.53;;;20.30;99.90;;;;;;5291026;28;20223;-64
2021/06/01 08:09:24;;;;;;;5.82;3.67;;;20.30;99.90;;;;;;5291119;28;20199;-65
2021/06/01 08:11:56;;;;;;;7.72;4.15;;;20.40;99.90;;;;;;5291387;28;20191;-66
2021/06/01 08:14:28;;;;;;;5.88;3.88;;;20.40;99.90;;;;;;5289421;28;20195;-64
2021/06/01 08:17:01;;;;;;;8.73;4.75;;;20.10;99.90;;;;;;5290969;28;20657;-62
2021/06/01 08:19:37;;;;;;;8.85;3.63;;;20.20;99.90;;;;;;5290362;28;20304;-65
2021/06/01 08:24:41;;;;;;;11.68;4.22;;;19.80;99.90;;;;;;5290631;28;20236;-61
2021/06/01 08:27:13;;;;;;;16.27;5.50;;;19.70;99.90;;;;;;5290224;28;20194;-66
2021/06/01 08:29:45;;;;;;;12.20;5.10;;;19.50;99.90;;;;;;5290300;28;20191;-61
2021/06/01 08:32:17;;;;;;;14.15;5.70;;;19.40;99.90;;;;;;5290782;28;20191;-64
2021/06/01 08:34:49;;;;;;;10.98;5.07;;;19.20;99.90;;;;;;5272563;28;20191;-61
2021/06/01 08:37:21;;;;;;;10.80;5.68;;;18.90;99.90;;;;;;5290263;28;20192;-63
2021/06/01 08:39:53;;;;;;;9.93;5.30;;;18.70;99.90;;;;;;5290222;28;20223;-63
2021/06/01 08:42:25;;;;;;;15.10;5.75;;;18.40;99.90;;;;;;5290633;28;20187;-65
2021/06/01 08:44:57;;;;;;;9.55;5.03;;;18.10;99.90;;;;;;5290615;28;20553;-64
2021/06/01 08:51:20;;;;;;;11.90;5.10;;;17.80;99.90;;;;;;5290303;28;20221;-64
2021/06/01 08:53:55;;;;;;;13.60;5.75;;;17.80;99.90;;;;;;5290579;28;20198;-63
2021/06/01 08:56:27;;;;;;;11.77;5.00;;;17.90;99.90;;;;;;5290281;28;20244;-62
2021/06/01 08:58:59;;;;;;;12.10;4.88;;;18.00;99.90;;;;;;5290131;28;20211;-63
2021/06/01 09:01:31;;;;;;;8.10;4.50;;;18.30;99.90;;;;;;5289692;28;20268;-64
2021/06/01 09:07:54;;;;;;;9.25;4.60;;;19.20;99.90;;;;;;5288995;28;20215;-64
2021/06/01 09:22:44;;;;;;;8.18;4.25;;;20.40;99.90;;;;;;5289910;28;20168;-67
2021/06/01 09:28:14;;;;;;;8.20;4.65;;;20.40;99.90;;;;;;5290045;28;20188;-63
2021/06/01 09:30:59;;;;;;;9.90;4.47;;;20.30;99.90;;;;;;5290157;28;20195;-64
2021/06/01 09:33:32;;;;;;;10.23;4.65;;;19.90;99.90;;;;;;5289351;28;20236;-63
2021/06/01 09:36:05;;;;;;;10.07;4.90;;;19.20;99.90;;;;;;5289621;28;20638;-64
2021/06/01 09:38:45;;;;;;;10.45;4.85;;;18.60;99.90;;;;;;5289847;28;20619;-66
2021/06/01 09:41:19;;;;;;;10.02;5.28;;;18.20;99.90;;;;;;5289759;28;20641;-62
2021/06/01 09:43:57;;;;;;;8.65;4.85;;;17.70;99.90;;;;;;5289867;28;20657;-64
2021/06/01 09:46:46;;;;;;;12.23;5.20;;;17.40;99.90;;;;;;5289688;28;20191;-63
2021/06/01 09:49:18;;;;;;;9.15;5.40;;;17.20;99.90;;;;;;5289882;28;20653;-64
2021/06/01 09:51:58;;;;;;;10.75;5.10;;;17.20;99.90;;;;;;5293354;28;20630;-63
2021/06/01 09:54:38;;;;;;;8.77;5.15;;;17.20;99.90;;;;;;5293113;28;20195;-64
2021/06/01 09:57:21;;;;;;;10.63;5.60;;;17.20;99.90;;;;;;5293333;28;20219;-65
2021/06/01 10:00:13;;;;;;;10.77;5.22;;;17.30;99.90;;;;;;5293866;28;20219;-63
2021/06/01 10:02:49;;;;;;;11.90;5.28;;;17.30;99.90;;;;;;5293502;28;20282;-63
2021/06/01 10:05:29;;;;;;;12.70;5.22;;;17.40;99.90;;;;;;5293675;28;20197;-64
2021/06/01 10:08:14;;;;;;;10.15;5.47;;;17.40;99.90;;;;;;5293160;28;20689;-64
2021/06/01 10:10:50;;;;;;;10.30;5.10;;;17.20;99.90;;;;;;5293426;28;20218;-64
2021/06/01 10:13:24;;;;;;;9.02;5.45;;;17.30;99.90;;;;;;5293610;28;20270;-64
2021/06/01 10:15:58;;;;;;;6.55;4.75;;;17.40;99.90;;;;;;5293596;28;20555;-64
2021/06/01 10:22:16;;;;;;;10.00;5.28;;;17.50;99.90;;;;;;5293721;28;20208;-64
2021/06/01 10:24:48;;;;;;;10.90;5.20;;;17.80;99.90;;;;;;5293650;28;20542;-63
2021/06/01 10:27:20;;;;;;;9.10;4.55;;;17.60;99.90;;;;;;5293324;28;20662;-65
2021/06/01 10:29:52;;;;;;;7.57;5.13;;;17.40;99.90;;;;;;5293187;28;20191;-64
2021/06/01 10:32:25;;;;;;;8.80;4.93;;;17.30;99.90;;;;;;5275131;28;20592;-63
2021/06/01 10:50:50;;;;;;;8.93;4.03;;;17.80;99.90;;;;;;5292842;28;20610;-68
2021/06/01 10:53:27;;;;;;;10.43;4.00;;;17.60;99.90;;;;;;5293522;28;20536;-70
2021/06/01 10:56:04;;;;;;;5.78;3.22;;;17.10;99.90;;;;;;5293327;28;20183;-67
2021/06/01 10:58:38;;;;;;;8.80;3.85;;;17.00;99.90;;;;;;5293187;28;20191;-65
2021/06/01 11:08:10;;;;;;;7.82;3.70;;;16.70;99.90;;;;;;5292065;28;20245;-63
2021/06/01 11:10:45;;;;;;;6.03;3.40;;;16.90;99.90;;;;;;5292173;28;20192;-64
2021/06/01 11:13:17;;;;;;;8.77;3.47;;;17.10;99.90;;;;;;5292420;28;20648;-64
2021/06/01 11:15:57;;;;;;;9.75;3.90;;;17.20;99.90;;;;;;5292242;28;20215;-67
2021/06/01 11:33:44;;;;;;;10.00;4.30;;;16.90;99.90;;;;;;5206152;28;20732;-63
2021/06/01 11:36:17;;;;;;;9.00;4.07;;;16.60;99.90;;;;;;5206088;28;20210;-67
2021/06/01 11:44:17;;;;;;;6.90;3.70;;;16.50;99.90;;;;;;5206261;28;20206;-64
2021/06/01 11:47:09;;;;;;;7.20;4.07;;;16.60;99.90;;;;;;5206328;28;20588;-68
2021/06/01 11:52:31;;;;;;;6.05;3.88;;;16.40;99.90;;;;;;5206115;28;20198;-64
2021/06/01 11:55:11;;;;;;;10.50;3.90;;;16.40;99.90;;;;;;5205978;28;20645;-68
2021/06/01 12:02:02;;;;;;;7.80;3.80;;;16.40;99.90;;;;;;5206046;28;20202;-64
2021/06/01 12:21:43;;;;;;;4.97;2.50;;;16.10;99.90;;;;;;5226101;28;20236;-67
2021/06/01 12:24:27;;;;;;;4.53;2.77;;;15.90;99.90;;;;;;5226366;28;20205;-69
2021/06/01 12:27:11;;;;;;;5.17;2.80;;;16.00;99.90;;;;;;5226045;28;20201;-66
2021/06/01 12:32:35;;;;;;;4.07;2.60;;;15.90;99.90;;;;;;5226046;28;20213;-69
2021/06/01 13:23:31;;;;;;;2.80;1.47;;;16.40;99.90;;;;;;5290052;28;20193;-70
2021/06/01 13:46:14;;;;;;;3.27;1.43;;;15.90;99.90;;;;;;5294167;28;20188;-72
2021/06/01 15:49:32;;;;;;;5.73;1.73;;;14.00;99.90;;;;;;5249265;28;20285;-65
2021/06/01 16:21:58;;;;;;;6.07;1.60;;;13.20;99.90;;;;;;5225695;28;20244;-67
2021/06/01 16:33:38;;;;;;;4.97;2.03;;;13.80;99.90;;;;;;5246001;28;20277;-65
2021/06/01 17:11:35;;;;;;;5.87;2.27;;;14.40;99.90;;;;;;5290293;28;20191;-64
2021/06/01 17:14:10;;;;;;;6.40;2.47;;;14.50;99.90;;;;;;5289793;28;20191;-62
2021/06/01 17:40:10;;;;;;;6.13;2.20;;;14.30;99.90;;;;;;5289736;28;20171;-63
2021/06/01 17:42:50;;;;;;;4.73;2.10;;;14.00;99.90;;;;;;5290117;28;20584;-63
2021/06/01 17:45:25;;;;;;;4.53;2.23;;;13.80;99.90;;;;;;5289686;28;20191;-63
2021/06/01 17:48:05;;;;;;;6.07;2.40;;;13.80;99.90;;;;;;5289969;28;20217;-63
2021/06/01 17:50:37;;;;;;;5.20;2.87;;;13.60;99.90;;;;;;5289720;28;20184;-63
2021/06/01 17:53:15;;;;;;;5.87;2.60;;;13.50;99.90;;;;;;5289503;28;20222;-66
2021/06/01 17:55:51;;;;;;;5.30;2.40;;;13.50;99.90;;;;;;5289878;28;20599;-62
2021/06/01 17:58:24;;;;;;;5.63;2.77;;;13.30;99.90;;;;;;5289372;28;20202;-62
2021/06/01 18:00:56;;;;;;;5.83;2.37;;;13.20;99.90;;;;;;5289234;28;20302;-62
2021/06/01 18:03:29;;;;;;;4.90;2.40;;;13.20;99.90;;;;;;5289354;28;20216;-66
2021/06/01 18:06:04;;;;;;;7.50;3.03;;;13.10;99.90;;;;;;5271704;28;20184;-62
2021/06/01 18:08:46;;;;;;;6.40;2.67;;;13.00;99.90;;;;;;5289296;28;20284;-63
2021/06/01 18:59:59;;;;;;;8.50;3.50;;;12.10;99.90;;;;;;5207256;28;20241;-67
2021/06/01 19:29:49;;;;;;;11.07;4.10;;;11.70;99.90;;;;;;5272793;28;20196;-70
2021/06/01 19:50:35;;;;;;;6.83;3.77;;;11.50;99.90;;;;;;5247309;28;20203;-70
2021/06/01 19:53:09;;;;;;;6.27;3.90;;;11.50;99.90;;;;;;5165066;28;20207;-68
2021/06/01 19:55:42;;;;;;;6.63;3.50;;;11.50;99.90;;;;;;5165254;28;20207;-66
2021/06/01 19:58:15;;;;;;;7.93;3.70;;;11.40;99.90;;;;;;5165231;28;20208;-70
2021/06/01 20:00:47;;;;;;;12.27;3.67;;;11.40;99.90;;;;;;5164905;28;20613;-69
2021/06/01 20:03:20;;;;;;;7.30;4.10;;;11.40;99.90;;;;;;5164857;28;20235;-69
2021/06/01 20:09:47;;;;;;;8.27;3.77;;;11.30;99.90;;;;;;5190790;28;20280;-66
2021/06/01 20:12:20;;;;;;;11.73;4.10;;;11.30;99.90;;;;;;5245925;28;20204;-68
2021/06/01 20:14:53;;;;;;;6.82;3.92;;;11.30;99.90;;;;;;5248500;28;20430;-69
2021/06/01 20:17:33;;;;;;;10.90;4.47;;;11.30;99.90;;;;;;5248906;28;20216;-68
2021/06/01 20:20:08;;;;;;;10.03;4.40;;;11.30;99.90;;;;;;5248845;28;20199;-71
2021/06/01 20:26:43;;;;;;;10.15;5.30;;;11.30;99.90;;;;;;5247732;28;20395;-68
2021/06/01 20:29:21;;;;;;;14.93;5.17;;;11.30;99.90;;;;;;5247381;28;20188;-66
2021/06/01 20:31:59;;;;;;;10.60;4.63;;;11.30;99.90;;;;;;5247852;28;20189;-67
2021/06/01 20:34:31;;;;;;;8.77;4.17;;;11.30;99.90;;;;;;5248190;28;20586;-67
2021/06/01 20:37:03;;;;;;;8.07;4.87;;;11.20;99.90;;;;;;5248843;28;20620;-66
2021/06/01 20:39:40;;;;;;;11.03;4.40;;;11.20;99.90;;;;;;5248935;28;20215;-68
2021/06/01 20:42:12;;;;;;;11.20;4.43;;;11.20;99.90;;;;;;5248593;28;20215;-67
2021/06/01 20:44:45;;;;;;;11.00;4.70;;;11.20;99.90;;;;;;5247248;28;20648;-66
2021/06/01 20:47:18;;;;;;;11.20;5.17;;;11.20;99.90;;;;;;5248456;28;20190;-65
2021/06/01 20:49:53;;;;;;;9.43;4.90;;;11.20;99.90;;;;;;5248793;28;20196;-65
2021/06/01 20:52:26;;;;;;;9.63;5.17;;;11.20;99.90;;;;;;5248542;28;20200;-65
2021/06/01 20:54:58;;;;;;;7.50;5.30;;;11.20;99.90;;;;;;5249068;28;20193;-67
2021/06/01 20:57:30;;;;;;;12.10;5.77;;;11.30;99.90;;;;;;5248904;28;20197;-72
2021/06/01 21:00:05;;;;;;;7.83;5.60;;;11.20;99.90;;;;;;5249170;28;20667;-66
2021/06/01 21:02:43;;;;;;;8.73;5.17;;;11.20;99.90;;;;;;5248790;28;20671;-65
2021/06/01 21:05:17;;;;;;;10.90;5.30;;;11.30;99.90;;;;;;5248864;28;20193;-66
2021/06/01 21:07:49;;;;;;;7.43;5.23;;;11.30;99.90;;;;;;5248438;28;20200;-69
2021/06/01 21:10:21;;;;;;;10.27;5.70;;;11.30;99.90;;;;;;5279745;28;20601;-67
2021/06/01 21:12:53;;;;;;;10.97;5.13;;;11.30;99.90;;;;;;5290644;28;20192;-67
2021/06/01 21:15:26;;;;;;;9.07;5.33;;;11.30;99.90;;;;;;5291215;28;20542;-70
2021/06/01 21:17:58;;;;;;;9.90;4.83;;;11.30;99.90;;;;;;5290625;28;20253;-67
2021/06/01 21:20:30;;;;;;;7.47;4.87;;;11.30;99.90;;;;;;5290422;28;20187;-69
2021/06/01 21:23:02;;;;;;;10.07;5.13;;;11.40;99.90;;;;;;5290283;28;20219;-66
2021/06/01 21:25:35;;;;;;;11.27;5.40;;;11.40;99.90;;;;;;5290324;28;20187;-68
2021/06/01 21:28:09;;;;;;;8.90;5.33;;;11.40;99.90;;;;;;5289927;28;20678;-66
2021/06/01 21:30:41;;;;;;;10.70;4.80;;;11.40;99.90;;;;;;5289862;28;20187;-66
2021/06/01 21:33:17;;;;;;;7.37;4.03;;;11.40;99.90;;;;;;5290166;28;20232;-65
2021/06/01 21:35:51;;;;;;;9.53;5.27;;;11.30;99.90;;;;;;5291117;28;20209;-65
2021/06/01 21:38:28;;;;;;;11.00;6.00;;;11.30;99.90;;;;;;5290757;28;20195;-64
2021/06/01 21:41:00;;;;;;;12.90;5.90;;;11.30;99.90;;;;;;5290155;28;20194;-68
2021/06/01 21:43:36;;;;;;;11.43;6.07;;;11.20;99.90;;;;;;5272375;28;20224;-64
2021/06/01 21:46:09;;;;;;;11.57;6.20;;;11.20;99.90;;;;;;5292991;28;20202;-67
2021/06/01 21:48:44;;;;;;;13.77;6.30;;;11.20;99.90;;;;;;5294623;28;20201;-68
2021/06/01 21:51:16;;;;;;;14.90;7.80;;;11.20;99.90;;;;;;5294094;28;20187;-69
2021/06/01 21:53:48;;;;;;;12.37;7.30;;;11.20;99.90;;;;;;5294361;28;20188;-70
2021/06/01 21:56:19;;;;;;;14.00;7.93;;;11.20;99.90;;;;;;5294284;28;20583;-70
2021/06/01 21:58:52;;;;;;;14.87;7.53;;;11.20;99.90;;;;;;5293925;28;20192;-71
2021/06/01 22:01:26;;;;;;;13.60;7.00;;;11.20;99.90;;;;;;5294282;28;20192;-69
2021/06/01 22:03:59;;;;;;;11.63;7.20;;;11.20;99.90;;;;;;5294203;28;20219;-69
2021/06/01 22:06:32;;;;;;;12.20;7.53;;;11.20;99.90;;;;;;5294157;28;20622;-68
2021/06/01 22:09:05;;;;;;;18.23;8.53;;;11.20;99.90;;;;;;5293757;28;20567;-68